• Join FlightAware (Why Join?)
  • Login
  • US Flag 
Gobble Gobble! 
04:12PM EST


 

Airport Tracker/Info


-or-


 

Live Flight TrackerFlight Track Log ✈ KAP927 ✈ 26-Jun-2013 ✈ KOGS - KALB

Flight Track Log - Related Links

Times and Time Zones

All times are in EDT time to prevent confusion due to time zone crossing. See the KAP927 flight status page for this flight to view local times or setup timezone preferences in your user account.

Time Position Orientation Groundspeed Altitude Reporting Facility
EDT Latitude Longitude Course Direction KTS MPH feet Rate Location/Type
07:06AM 44.6499 -75.4370 148° Southeast  Level Estimated
07:08AM 44.6081 -75.3503 148° Southeast 149 171 2,700  Level Boston Center
07:09AM 44.5817 -75.3197 140° Southeast 139 160 3,200 420 Climbing Boston Center
07:10AM 44.5489 -75.2950 152° Southeast 133 153 3,600 420 Climbing Boston Center
07:11AM 44.5164 -75.2642 146° Southeast 138 159 4,100 420 Climbing Boston Center
07:12AM 44.4858 -75.2367 147° Southeast 138 159 4,500 360 Climbing Boston Center
07:13AM 44.4531 -75.2147 154° Southeast 138 159 4,900 360 Climbing Boston Center
07:14AM 44.4267 -75.1844 141° Southeast 138 159 5,300 420 Climbing Boston Center
07:15AM 44.3958 -75.1656 156° South 133 153 5,800 420 Climbing Boston Center
07:16AM 44.3611 -75.1289 143° Southeast 138 159 6,200 420 Climbing Boston Center
07:17AM 44.3283 -75.1072 155° Southeast 138 159 6,700 420 Climbing Boston Center
07:18AM 44.2958 -75.0767 146° Southeast 138 159 7,100 180 Climbing Boston Center
07:19AM 44.2611 -75.0461 148° Southeast 138 159 7,100  Level Boston Center
07:20AM 44.2200 -75.0125 150° Southeast 149 171 7,100  Level Boston Center
07:21AM 44.1769 -74.9789 151° Southeast 160 184 7,100  Level Boston Center
07:22AM 44.1361 -74.9453 149° Southeast 172 198 7,100  Level Boston Center
07:23AM 44.0953 -74.9117 149° Southeast 172 198 7,100  Level Boston Center
07:24AM 44.0564 -74.8756 146° Southeast 177 204 7,100  Level Boston Center
07:25AM 44.0175 -74.8450 151° Southeast 177 204 7,100  Level Boston Center
07:26AM 43.9783 -74.8117 149° Southeast 177 204 7,100  Level Boston Center
07:27AM 43.9417 -74.7814 149° Southeast 172 198 7,100  Level Boston Center
07:28AM 43.9025 -74.7511 151° Southeast 162 186 7,100  Level Boston Center
07:29AM 43.8678 -74.7181 146° Southeast 162 186 7,100 -60 Level Boston Center
07:30AM 43.8289 -74.6878 151° Southeast 162 186 7,000  Descending Boston Center
07:31AM 43.7900 -74.6547 148° Southeast 162 186 7,100  Climbing Boston Center
07:32AM 43.7531 -74.6244 149° Southeast 162 186 7,100  Level Boston Center
07:33AM 43.7161 -74.5944 150° Southeast 162 186 7,100  Level Boston Center
07:34AM 43.6769 -74.5644 151° Southeast 162 186 7,100  Level Boston Center
07:35AM 43.6400 -74.5317 147° Southeast 162 186 7,100  Level Boston Center
07:36AM 43.6011 -74.5014 151° Southeast 162 186 7,100  Level Boston Center
07:37AM 43.5639 -74.4717 150° Southeast 162 186 7,100  Level Boston Center
07:38AM 43.5269 -74.4417 150° Southeast 162 186 7,100  Level Boston Center
07:39AM 43.4900 -74.4089 147° Southeast 162 186 7,100  Level Boston Center
07:39AM 43.4633 -74.3881 150° Southeast 156 180 7,100  Level Boston Center
07:40AM 43.4428 -74.3703 148° Southeast 156 180 7,100  Level Boston Center
07:41AM 43.4161 -74.3467 147° Southeast 162 186 7,100  Level Boston Center
07:42AM 43.3750 -74.3139 150° Southeast 162 186 7,100  Level Boston Center
07:43AM 43.3419 -74.2872 150° Southeast 162 186 7,100  Level Boston Center
07:44AM 43.2989 -74.2517 149° Southeast 162 186 7,100 -120 Level Boston Center
07:45AM 43.2658 -74.2278 152° Southeast 162 186 6,900 -420 Descending Boston Center
07:46AM 43.2119 -74.2036 162° South 178 205 6,200 -720 Descending Boston Center
07:47AM 43.1542 -74.1706 157° South 188 216 5,400 -780 Descending Boston Center
07:48AM 43.1047 -74.1436 158° South 188 216 4,700 -600 Descending Boston Center
07:49AM 43.0550 -74.1194 160° South 188 216 4,200 -360 Descending Boston Center
07:50AM 43.0094 -74.0897 154° Southeast 188 216 4,000 -120 Descending Boston Center
07:51AM 42.9683 -74.0603 152° Southeast 175 201 4,000 -180 Level Boston Center
07:52AM 42.9269 -74.0308 152° Southeast 166 191 3,700 -360 Descending Boston Center
07:53AM 42.8817 -73.9956 150° Southeast 178 205 3,300 -360 Descending Boston Center
07:54AM 42.8361 -73.9692 157° South 178 205 3,000 -300 Descending Boston Center
07:55AM 42.7908 -73.9311 148° Southeast 179 206 2,700 -420 Descending Boston Center
07:56AM 42.7497 -73.8906 144° Southeast 184 212 2,200 -660 Descending Boston Center
07:57AM 42.7169 -73.8444 134° Southeast 163 188 1,400 -840 Descending Boston Center
07:58AM 42.7278 -73.8081 68° East 111 128 600 -840 Descending Boston Center
08:00AM 42.7491 -73.8020 47° Northeast  Level Estimated
08:07AM 42.7491 -73.8020 160° South  Level Estimated
08:08AM 42.7491 -73.8020 160° South  Level Estimated